sensor_id;sensor_type;location;lat;lon;timestamp;P1;durP1;ratioP1;P2;durP2;ratioP2
41923;SDS011;27613;48.116;11.656;2022-08-05T00:02:23;6.20;;;3.22;;
41923;SDS011;27613;48.116;11.656;2022-08-05T00:04:48;3.83;;;2.83;;
41923;SDS011;27613;48.116;11.656;2022-08-05T00:07:14;3.90;;;2.80;;
41923;SDS011;27613;48.116;11.656;2022-08-05T00:09:39;4.18;;;2.78;;
41923;SDS011;27613;48.116;11.656;2022-08-05T00:12:05;4.80;;;2.95;;
41923;SDS011;27613;48.116;11.656;2022-08-05T00:14:31;3.33;;;2.58;;
41923;SDS011;27613;48.116;11.656;2022-08-05T00:16:57;3.65;;;2.67;;
41923;SDS011;27613;48.116;11.656;2022-08-05T00:19:23;5.68;;;2.80;;
41923;SDS011;27613;48.116;11.656;2022-08-05T00:21:49;4.63;;;3.10;;
41923;SDS011;27613;48.116;11.656;2022-08-05T00:24:15;3.78;;;2.60;;
41923;SDS011;27613;48.116;11.656;2022-08-05T00:26:41;3.83;;;2.72;;
41923;SDS011;27613;48.116;11.656;2022-08-05T00:29:06;4.75;;;2.97;;
41923;SDS011;27613;48.116;11.656;2022-08-05T00:31:32;3.60;;;2.80;;
41923;SDS011;27613;48.116;11.656;2022-08-05T00:33:57;3.55;;;2.53;;
41923;SDS011;27613;48.116;11.656;2022-08-05T00:36:23;3.90;;;2.80;;
41923;SDS011;27613;48.116;11.656;2022-08-05T00:38:49;3.60;;;2.78;;
41923;SDS011;27613;48.116;11.656;2022-08-05T00:41:26;4.05;;;2.67;;
41923;SDS011;27613;48.116;11.656;2022-08-05T00:43:58;4.22;;;3.22;;
41923;SDS011;27613;48.116;11.656;2022-08-05T00:46:25;3.85;;;2.80;;
41923;SDS011;27613;48.116;11.656;2022-08-05T00:48:51;4.63;;;2.97;;
41923;SDS011;27613;48.116;11.656;2022-08-05T00:51:18;3.67;;;2.72;;
41923;SDS011;27613;48.116;11.656;2022-08-05T00:53:44;8.10;;;3.28;;
41923;SDS011;27613;48.116;11.656;2022-08-05T00:56:09;4.03;;;3.00;;
41923;SDS011;27613;48.116;11.656;2022-08-05T00:58:35;5.75;;;2.55;;
41923;SDS011;27613;48.116;11.656;2022-08-05T01:01:01;4.72;;;2.90;;
41923;SDS011;27613;48.116;11.656;2022-08-05T01:03:27;4.93;;;2.90;;
41923;SDS011;27613;48.116;11.656;2022-08-05T01:05:54;4.10;;;2.50;;
41923;SDS011;27613;48.116;11.656;2022-08-05T01:08:20;3.90;;;2.80;;
41923;SDS011;27613;48.116;11.656;2022-08-05T01:11:21;3.03;;;2.33;;
41923;SDS011;27613;48.116;11.656;2022-08-05T01:16:26;4.50;;;2.58;;
41923;SDS011;27613;48.116;11.656;2022-08-05T01:30:33;4.22;;;2.97;;
41923;SDS011;27613;48.116;11.656;2022-08-05T01:33:02;3.47;;;2.55;;
41923;SDS011;27613;48.116;11.656;2022-08-05T01:35:33;3.58;;;2.67;;
41923;SDS011;27613;48.116;11.656;2022-08-05T01:38:03;5.40;;;2.90;;
41923;SDS011;27613;48.116;11.656;2022-08-05T01:40:31;5.43;;;3.05;;
41923;SDS011;27613;48.116;11.656;2022-08-05T01:42:58;3.33;;;2.50;;
41923;SDS011;27613;48.116;11.656;2022-08-05T01:45:26;3.38;;;2.50;;
41923;SDS011;27613;48.116;11.656;2022-08-05T01:47:54;4.22;;;3.22;;
41923;SDS011;27613;48.116;11.656;2022-08-05T01:50:25;3.65;;;2.60;;
41923;SDS011;27613;48.116;11.656;2022-08-05T01:53:00;4.03;;;2.90;;
41923;SDS011;27613;48.116;11.656;2022-08-05T01:55:28;3.33;;;2.70;;
41923;SDS011;27613;48.116;11.656;2022-08-05T01:57:57;3.28;;;2.58;;
41923;SDS011;27613;48.116;11.656;2022-08-05T02:00:24;3.80;;;2.60;;
41923;SDS011;27613;48.116;11.656;2022-08-05T02:02:52;3.40;;;2.60;;
41923;SDS011;27613;48.116;11.656;2022-08-05T02:05:22;4.15;;;2.60;;
41923;SDS011;27613;48.116;11.656;2022-08-05T02:07:52;3.28;;;2.40;;
41923;SDS011;27613;48.116;11.656;2022-08-05T02:10:18;3.65;;;2.70;;
41923;SDS011;27613;48.116;11.656;2022-08-05T02:12:50;4.07;;;2.70;;
41923;SDS011;27613;48.116;11.656;2022-08-05T02:17:52;3.35;;;2.80;;
41923;SDS011;27613;48.116;11.656;2022-08-05T02:20:25;5.00;;;3.33;;
41923;SDS011;27613;48.116;11.656;2022-08-05T02:22:55;3.90;;;2.78;;
41923;SDS011;27613;48.116;11.656;2022-08-05T02:25:24;3.83;;;2.63;;
41923;SDS011;27613;48.116;11.656;2022-08-05T02:27:51;4.95;;;2.80;;
41923;SDS011;27613;48.116;11.656;2022-08-05T02:30:22;3.72;;;2.88;;
41923;SDS011;27613;48.116;11.656;2022-08-05T02:32:52;4.85;;;2.80;;
41923;SDS011;27613;48.116;11.656;2022-08-05T02:35:21;4.53;;;2.70;;
41923;SDS011;27613;48.116;11.656;2022-08-05T02:37:49;4.72;;;2.72;;
41923;SDS011;27613;48.116;11.656;2022-08-05T02:40:17;3.50;;;2.55;;
41923;SDS011;27613;48.116;11.656;2022-08-05T02:42:45;4.25;;;2.50;;
41923;SDS011;27613;48.116;11.656;2022-08-05T02:45:12;5.53;;;3.13;;
41923;SDS011;27613;48.116;11.656;2022-08-05T02:47:39;3.90;;;3.03;;
41923;SDS011;27613;48.116;11.656;2022-08-05T02:50:06;4.03;;;2.67;;
41923;SDS011;27613;48.116;11.656;2022-08-05T02:52:33;3.47;;;2.67;;
41923;SDS011;27613;48.116;11.656;2022-08-05T02:55:00;4.50;;;3.17;;
41923;SDS011;27613;48.116;11.656;2022-08-05T02:57:26;3.67;;;2.42;;
41923;SDS011;27613;48.116;11.656;2022-08-05T02:59:53;3.85;;;2.67;;
41923;SDS011;27613;48.116;11.656;2022-08-05T03:02:20;4.35;;;2.88;;
41923;SDS011;27613;48.116;11.656;2022-08-05T03:04:50;4.35;;;2.70;;
41923;SDS011;27613;48.116;11.656;2022-08-05T03:07:17;3.80;;;2.72;;
41923;SDS011;27613;48.116;11.656;2022-08-05T03:09:43;5.03;;;3.15;;
41923;SDS011;27613;48.116;11.656;2022-08-05T03:12:13;3.13;;;2.53;;
41923;SDS011;27613;48.116;11.656;2022-08-05T03:14:53;3.13;;;2.58;;
41923;SDS011;27613;48.116;11.656;2022-08-05T03:17:19;3.42;;;2.72;;
41923;SDS011;27613;48.116;11.656;2022-08-05T03:19:44;3.88;;;2.45;;
41923;SDS011;27613;48.116;11.656;2022-08-05T03:22:10;5.00;;;2.90;;
41923;SDS011;27613;48.116;11.656;2022-08-05T03:24:36;6.63;;;3.10;;
41923;SDS011;27613;48.116;11.656;2022-08-05T03:27:01;4.15;;;2.78;;
41923;SDS011;27613;48.116;11.656;2022-08-05T03:29:27;29.70;;;3.30;;
41923;SDS011;27613;48.116;11.656;2022-08-05T03:31:53;4.45;;;3.05;;
41923;SDS011;27613;48.116;11.656;2022-08-05T03:34:19;4.40;;;3.15;;
41923;SDS011;27613;48.116;11.656;2022-08-05T03:36:45;5.32;;;2.50;;
41923;SDS011;27613;48.116;11.656;2022-08-05T03:39:11;3.85;;;2.60;;
41923;SDS011;27613;48.116;11.656;2022-08-05T03:41:37;5.75;;;2.70;;
41923;SDS011;27613;48.116;11.656;2022-08-05T03:44:02;4.03;;;2.90;;
41923;SDS011;27613;48.116;11.656;2022-08-05T03:46:28;3.92;;;2.88;;
41923;SDS011;27613;48.116;11.656;2022-08-05T03:48:54;3.75;;;2.78;;
41923;SDS011;27613;48.116;11.656;2022-08-05T03:51:20;3.53;;;2.67;;
41923;SDS011;27613;48.116;11.656;2022-08-05T03:56:31;4.05;;;3.28;;
41923;SDS011;27613;48.116;11.656;2022-08-05T03:59:03;3.95;;;3.15;;
41923;SDS011;27613;48.116;11.656;2022-08-05T04:01:34;4.20;;;2.83;;
41923;SDS011;27613;48.116;11.656;2022-08-05T04:04:03;3.90;;;3.10;;
41923;SDS011;27613;48.116;11.656;2022-08-05T04:06:31;5.05;;;3.55;;
41923;SDS011;27613;48.116;11.656;2022-08-05T04:08:58;5.60;;;3.22;;
41923;SDS011;27613;48.116;11.656;2022-08-05T04:11:24;3.75;;;2.67;;
41923;SDS011;27613;48.116;11.656;2022-08-05T04:13:50;3.35;;;2.65;;
41923;SDS011;27613;48.116;11.656;2022-08-05T04:16:16;7.43;;;2.92;;
41923;SDS011;27613;48.116;11.656;2022-08-05T04:18:43;5.47;;;3.22;;
41923;SDS011;27613;48.116;11.656;2022-08-05T04:21:10;4.47;;;3.30;;
41923;SDS011;27613;48.116;11.656;2022-08-05T04:23:36;4.28;;;3.28;;
41923;SDS011;27613;48.116;11.656;2022-08-05T04:26:03;3.45;;;2.90;;
41923;SDS011;27613;48.116;11.656;2022-08-05T04:28:29;3.92;;;3.08;;
41923;SDS011;27613;48.116;11.656;2022-08-05T04:30:55;3.90;;;3.25;;
41923;SDS011;27613;48.116;11.656;2022-08-05T04:33:20;4.60;;;3.05;;
41923;SDS011;27613;48.116;11.656;2022-08-05T04:35:46;5.65;;;3.20;;
41923;SDS011;27613;48.116;11.656;2022-08-05T04:38:12;5.80;;;3.58;;
41923;SDS011;27613;48.116;11.656;2022-08-05T04:40:38;4.63;;;3.50;;
41923;SDS011;27613;48.116;11.656;2022-08-05T04:43:04;4.93;;;3.60;;
41923;SDS011;27613;48.116;11.656;2022-08-05T04:45:31;4.60;;;3.08;;
41923;SDS011;27613;48.116;11.656;2022-08-05T04:48:04;4.68;;;3.13;;
41923;SDS011;27613;48.116;11.656;2022-08-05T04:50:41;4.35;;;3.42;;
41923;SDS011;27613;48.116;11.656;2022-08-05T04:53:11;5.70;;;3.20;;
41923;SDS011;27613;48.116;11.656;2022-08-05T04:55:38;4.53;;;3.22;;
41923;SDS011;27613;48.116;11.656;2022-08-05T04:58:06;5.10;;;2.88;;
41923;SDS011;27613;48.116;11.656;2022-08-05T05:00:35;4.25;;;3.17;;
41923;SDS011;27613;48.116;11.656;2022-08-05T05:03:02;4.45;;;3.13;;
41923;SDS011;27613;48.116;11.656;2022-08-05T05:05:29;6.07;;;3.63;;
41923;SDS011;27613;48.116;11.656;2022-08-05T05:07:58;7.47;;;4.53;;
41923;SDS011;27613;48.116;11.656;2022-08-05T05:10:25;8.00;;;4.15;;
41923;SDS011;27613;48.116;11.656;2022-08-05T05:12:51;6.18;;;4.22;;
41923;SDS011;27613;48.116;11.656;2022-08-05T05:15:16;5.47;;;3.97;;
41923;SDS011;27613;48.116;11.656;2022-08-05T05:17:42;7.13;;;5.32;;
41923;SDS011;27613;48.116;11.656;2022-08-05T05:20:08;6.22;;;4.65;;
41923;SDS011;27613;48.116;11.656;2022-08-05T05:22:35;6.57;;;4.07;;
41923;SDS011;27613;48.116;11.656;2022-08-05T05:25:01;8.73;;;3.60;;
41923;SDS011;27613;48.116;11.656;2022-08-05T05:27:28;6.32;;;3.53;;
41923;SDS011;27613;48.116;11.656;2022-08-05T05:29:55;4.75;;;2.92;;
41923;SDS011;27613;48.116;11.656;2022-08-05T05:32:21;3.83;;;2.63;;
41923;SDS011;27613;48.116;11.656;2022-08-05T05:34:47;5.43;;;3.13;;
41923;SDS011;27613;48.116;11.656;2022-08-05T05:37:12;4.35;;;2.55;;
41923;SDS011;27613;48.116;11.656;2022-08-05T05:39:39;4.22;;;2.40;;
41923;SDS011;27613;48.116;11.656;2022-08-05T05:42:04;4.63;;;2.72;;
41923;SDS011;27613;48.116;11.656;2022-08-05T05:44:30;7.22;;;2.70;;
41923;SDS011;27613;48.116;11.656;2022-08-05T05:46:56;9.02;;;2.70;;
41923;SDS011;27613;48.116;11.656;2022-08-05T05:49:22;6.30;;;2.42;;
41923;SDS011;27613;48.116;11.656;2022-08-05T05:51:47;3.35;;;2.30;;
41923;SDS011;27613;48.116;11.656;2022-08-05T05:54:13;4.65;;;2.22;;
41923;SDS011;27613;48.116;11.656;2022-08-05T05:56:39;2.75;;;2.13;;
41923;SDS011;27613;48.116;11.656;2022-08-05T05:59:05;6.53;;;2.28;;
41923;SDS011;27613;48.116;11.656;2022-08-05T06:01:31;4.53;;;2.10;;
41923;SDS011;27613;48.116;11.656;2022-08-05T06:04:01;2.90;;;2.20;;
41923;SDS011;27613;48.116;11.656;2022-08-05T06:06:27;4.18;;;2.40;;
41923;SDS011;27613;48.116;11.656;2022-08-05T06:08:53;8.68;;;1.90;;
41923;SDS011;27613;48.116;11.656;2022-08-05T06:13:47;2.88;;;2.17;;
41923;SDS011;27613;48.116;11.656;2022-08-05T06:16:13;4.63;;;2.20;;
41923;SDS011;27613;48.116;11.656;2022-08-05T06:18:38;3.50;;;2.08;;
41923;SDS011;27613;48.116;11.656;2022-08-05T06:21:04;2.88;;;2.15;;
41923;SDS011;27613;48.116;11.656;2022-08-05T06:23:30;3.17;;;1.83;;
41923;SDS011;27613;48.116;11.656;2022-08-05T06:25:55;4.57;;;2.38;;
41923;SDS011;27613;48.116;11.656;2022-08-05T06:28:21;3.53;;;2.10;;
41923;SDS011;27613;48.116;11.656;2022-08-05T06:30:47;2.40;;;1.75;;
41923;SDS011;27613;48.116;11.656;2022-08-05T06:33:13;6.50;;;2.30;;
41923;SDS011;27613;48.116;11.656;2022-08-05T06:35:38;7.88;;;2.33;;
41923;SDS011;27613;48.116;11.656;2022-08-05T06:38:04;3.30;;;2.17;;
41923;SDS011;27613;48.116;11.656;2022-08-05T06:40:30;3.78;;;1.80;;
41923;SDS011;27613;48.116;11.656;2022-08-05T06:42:56;3.38;;;2.10;;
41923;SDS011;27613;48.116;11.656;2022-08-05T06:45:22;7.60;;;1.90;;
41923;SDS011;27613;48.116;11.656;2022-08-05T06:47:47;3.70;;;2.20;;
41923;SDS011;27613;48.116;11.656;2022-08-05T06:50:13;3.45;;;1.90;;
41923;SDS011;27613;48.116;11.656;2022-08-05T06:52:38;3.22;;;1.85;;
41923;SDS011;27613;48.116;11.656;2022-08-05T06:55:05;4.40;;;2.03;;
41923;SDS011;27613;48.116;11.656;2022-08-05T06:57:31;3.58;;;2.10;;
41923;SDS011;27613;48.116;11.656;2022-08-05T06:59:56;5.00;;;2.30;;
41923;SDS011;27613;48.116;11.656;2022-08-05T07:02:22;3.78;;;1.90;;
41923;SDS011;27613;48.116;11.656;2022-08-05T07:04:48;3.08;;;2.05;;
41923;SDS011;27613;48.116;11.656;2022-08-05T07:07:13;7.28;;;2.47;;
41923;SDS011;27613;48.116;11.656;2022-08-05T07:09:39;4.13;;;1.80;;
41923;SDS011;27613;48.116;11.656;2022-08-05T07:12:04;5.50;;;2.08;;
41923;SDS011;27613;48.116;11.656;2022-08-05T07:14:30;4.72;;;2.25;;
41923;SDS011;27613;48.116;11.656;2022-08-05T07:17:14;3.80;;;1.98;;
41923;SDS011;27613;48.116;11.656;2022-08-05T07:19:40;5.00;;;1.90;;
41923;SDS011;27613;48.116;11.656;2022-08-05T07:22:06;5.80;;;1.70;;
41923;SDS011;27613;48.116;11.656;2022-08-05T07:24:32;3.67;;;2.00;;
41923;SDS011;27613;48.116;11.656;2022-08-05T07:26:57;2.75;;;1.90;;
41923;SDS011;27613;48.116;11.656;2022-08-05T07:29:23;7.68;;;2.28;;
41923;SDS011;27613;48.116;11.656;2022-08-05T07:31:48;3.03;;;1.80;;
41923;SDS011;27613;48.116;11.656;2022-08-05T07:34:14;5.20;;;2.00;;
41923;SDS011;27613;48.116;11.656;2022-08-05T07:36:40;2.85;;;1.70;;
41923;SDS011;27613;48.116;11.656;2022-08-05T07:39:08;3.38;;;2.13;;
41923;SDS011;27613;48.116;11.656;2022-08-05T07:41:36;5.63;;;1.70;;
41923;SDS011;27613;48.116;11.656;2022-08-05T07:44:06;3.05;;;1.83;;
41923;SDS011;27613;48.116;11.656;2022-08-05T07:46:33;3.05;;;1.73;;
41923;SDS011;27613;48.116;11.656;2022-08-05T07:48:59;5.13;;;2.15;;
41923;SDS011;27613;48.116;11.656;2022-08-05T07:51:26;4.07;;;1.90;;
41923;SDS011;27613;48.116;11.656;2022-08-05T07:53:52;4.65;;;2.22;;
41923;SDS011;27613;48.116;11.656;2022-08-05T07:56:18;4.13;;;2.05;;
41923;SDS011;27613;48.116;11.656;2022-08-05T07:58:44;3.08;;;2.38;;
41923;SDS011;27613;48.116;11.656;2022-08-05T08:01:12;6.35;;;2.20;;
41923;SDS011;27613;48.116;11.656;2022-08-05T08:03:38;4.97;;;2.10;;
41923;SDS011;27613;48.116;11.656;2022-08-05T08:06:03;3.55;;;1.80;;
41923;SDS011;27613;48.116;11.656;2022-08-05T08:08:29;7.80;;;2.70;;
41923;SDS011;27613;48.116;11.656;2022-08-05T08:10:55;12.85;;;2.55;;
41923;SDS011;27613;48.116;11.656;2022-08-05T08:13:20;7.65;;;2.30;;
41923;SDS011;27613;48.116;11.656;2022-08-05T08:15:46;3.10;;;2.25;;
41923;SDS011;27613;48.116;11.656;2022-08-05T08:18:12;4.00;;;2.20;;
41923;SDS011;27613;48.116;11.656;2022-08-05T08:20:37;7.13;;;2.55;;
41923;SDS011;27613;48.116;11.656;2022-08-05T08:23:03;3.33;;;2.20;;
41923;SDS011;27613;48.116;11.656;2022-08-05T08:25:31;3.88;;;2.15;;
41923;SDS011;27613;48.116;11.656;2022-08-05T08:27:57;3.50;;;2.10;;
41923;SDS011;27613;48.116;11.656;2022-08-05T08:30:23;5.63;;;2.67;;
41923;SDS011;27613;48.116;11.656;2022-08-05T08:32:49;8.30;;;2.33;;
41923;SDS011;27613;48.116;11.656;2022-08-05T08:35:14;5.32;;;2.28;;
41923;SDS011;27613;48.116;11.656;2022-08-05T08:37:40;3.92;;;2.35;;
41923;SDS011;27613;48.116;11.656;2022-08-05T08:40:06;3.95;;;2.20;;
41923;SDS011;27613;48.116;11.656;2022-08-05T08:42:31;6.95;;;2.42;;
41923;SDS011;27613;48.116;11.656;2022-08-05T08:44:57;3.38;;;2.30;;
41923;SDS011;27613;48.116;11.656;2022-08-05T08:47:25;4.10;;;2.70;;
41923;SDS011;27613;48.116;11.656;2022-08-05T08:49:52;4.72;;;2.53;;
41923;SDS011;27613;48.116;11.656;2022-08-05T08:52:24;4.90;;;2.70;;
41923;SDS011;27613;48.116;11.656;2022-08-05T08:54:53;5.40;;;2.63;;
41923;SDS011;27613;48.116;11.656;2022-08-05T08:57:19;4.43;;;2.53;;
41923;SDS011;27613;48.116;11.656;2022-08-05T08:59:46;5.70;;;2.80;;
41923;SDS011;27613;48.116;11.656;2022-08-05T09:02:13;4.50;;;2.70;;
41923;SDS011;27613;48.116;11.656;2022-08-05T09:04:42;3.90;;;2.45;;
41923;SDS011;27613;48.116;11.656;2022-08-05T09:07:10;5.53;;;3.10;;
41923;SDS011;27613;48.116;11.656;2022-08-05T09:09:36;4.32;;;2.53;;
41923;SDS011;27613;48.116;11.656;2022-08-05T09:12:02;5.45;;;2.90;;
41923;SDS011;27613;48.116;11.656;2022-08-05T09:14:33;5.85;;;2.90;;
41923;SDS011;27613;48.116;11.656;2022-08-05T09:17:00;5.53;;;2.80;;
41923;SDS011;27613;48.116;11.656;2022-08-05T09:19:27;5.32;;;3.00;;
41923;SDS011;27613;48.116;11.656;2022-08-05T09:21:53;9.20;;;2.60;;
41923;SDS011;27613;48.116;11.656;2022-08-05T09:24:19;9.25;;;2.40;;
41923;SDS011;27613;48.116;11.656;2022-08-05T09:26:52;8.80;;;2.30;;
41923;SDS011;27613;48.116;11.656;2022-08-05T09:29:21;6.00;;;2.63;;
41923;SDS011;27613;48.116;11.656;2022-08-05T09:32:03;8.32;;;3.22;;
41923;SDS011;27613;48.116;11.656;2022-08-05T09:34:53;3.30;;;2.25;;
41923;SDS011;27613;48.116;11.656;2022-08-05T09:37:20;5.22;;;2.28;;
41923;SDS011;27613;48.116;11.656;2022-08-05T09:39:47;4.57;;;2.10;;
41923;SDS011;27613;48.116;11.656;2022-08-05T09:42:17;4.65;;;2.38;;
41923;SDS011;27613;48.116;11.656;2022-08-05T09:44:45;8.90;;;2.40;;
41923;SDS011;27613;48.116;11.656;2022-08-05T09:47:15;4.13;;;2.15;;
41923;SDS011;27613;48.116;11.656;2022-08-05T09:49:43;2.30;;;1.83;;
41923;SDS011;27613;48.116;11.656;2022-08-05T09:54:53;3.67;;;1.90;;
41923;SDS011;27613;48.116;11.656;2022-08-05T09:57:36;3.90;;;2.20;;
41923;SDS011;27613;48.116;11.656;2022-08-05T10:02:41;3.83;;;2.50;;
41923;SDS011;27613;48.116;11.656;2022-08-05T10:07:43;4.10;;;1.85;;
41923;SDS011;27613;48.116;11.656;2022-08-05T10:12:40;3.15;;;1.90;;
41923;SDS011;27613;48.116;11.656;2022-08-05T10:15:19;6.95;;;2.08;;
41923;SDS011;27613;48.116;11.656;2022-08-05T10:20:40;4.68;;;1.85;;
41923;SDS011;27613;48.116;11.656;2022-08-05T10:23:24;3.50;;;2.20;;
41923;SDS011;27613;48.116;11.656;2022-08-05T10:25:55;8.75;;;2.20;;
41923;SDS011;27613;48.116;11.656;2022-08-05T10:28:22;6.05;;;2.08;;
41923;SDS011;27613;48.116;11.656;2022-08-05T10:30:49;3.40;;;1.90;;
41923;SDS011;27613;48.116;11.656;2022-08-05T10:33:16;4.53;;;2.17;;
41923;SDS011;27613;48.116;11.656;2022-08-05T10:35:42;4.10;;;2.20;;
41923;SDS011;27613;48.116;11.656;2022-08-05T10:38:08;3.03;;;1.80;;
41923;SDS011;27613;48.116;11.656;2022-08-05T10:40:38;4.85;;;1.83;;
41923;SDS011;27613;48.116;11.656;2022-08-05T10:45:59;4.47;;;1.83;;
41923;SDS011;27613;48.116;11.656;2022-08-05T10:50:57;3.13;;;1.60;;
41923;SDS011;27613;48.116;11.656;2022-08-05T10:56:04;5.72;;;2.00;;
41923;SDS011;27613;48.116;11.656;2022-08-05T10:58:32;5.47;;;2.13;;
41923;SDS011;27613;48.116;11.656;2022-08-05T11:01:02;3.50;;;1.80;;
41923;SDS011;27613;48.116;11.656;2022-08-05T11:03:29;4.57;;;1.65;;
41923;SDS011;27613;48.116;11.656;2022-08-05T11:06:05;4.85;;;2.15;;
41923;SDS011;27613;48.116;11.656;2022-08-05T11:08:32;2.90;;;1.58;;
41923;SDS011;27613;48.116;11.656;2022-08-05T11:14:00;3.67;;;1.90;;
41923;SDS011;27613;48.116;11.656;2022-08-05T11:16:26;3.42;;;1.60;;
41923;SDS011;27613;48.116;11.656;2022-08-05T11:21:51;2.30;;;1.55;;
41923;SDS011;27613;48.116;11.656;2022-08-05T11:24:20;3.38;;;1.55;;
41923;SDS011;27613;48.116;11.656;2022-08-05T11:26:48;4.82;;;1.83;;
41923;SDS011;27613;48.116;11.656;2022-08-05T11:29:34;3.45;;;1.75;;
41923;SDS011;27613;48.116;11.656;2022-08-05T11:32:24;2.78;;;1.73;;
41923;SDS011;27613;48.116;11.656;2022-08-05T11:34:52;4.97;;;1.80;;
41923;SDS011;27613;48.116;11.656;2022-08-05T11:40:18;4.50;;;1.83;;
41923;SDS011;27613;48.116;11.656;2022-08-05T11:42:44;2.47;;;1.58;;
41923;SDS011;27613;48.116;11.656;2022-08-05T11:45:10;3.05;;;1.67;;
41923;SDS011;27613;48.116;11.656;2022-08-05T11:47:36;5.25;;;2.28;;
41923;SDS011;27613;48.116;11.656;2022-08-05T11:50:02;4.68;;;1.80;;
41923;SDS011;27613;48.116;11.656;2022-08-05T11:52:28;3.05;;;1.70;;
41923;SDS011;27613;48.116;11.656;2022-08-05T11:54:54;2.90;;;1.80;;
41923;SDS011;27613;48.116;11.656;2022-08-05T11:57:26;7.38;;;1.95;;
41923;SDS011;27613;48.116;11.656;2022-08-05T11:59:53;2.90;;;1.70;;
41923;SDS011;27613;48.116;11.656;2022-08-05T12:02:26;5.75;;;1.55;;
41923;SDS011;27613;48.116;11.656;2022-08-05T12:04:55;3.55;;;1.63;;
41923;SDS011;27613;48.116;11.656;2022-08-05T12:07:22;5.18;;;2.17;;
41923;SDS011;27613;48.116;11.656;2022-08-05T12:09:51;3.70;;;1.60;;
41923;SDS011;27613;48.116;11.656;2022-08-05T12:12:21;2.58;;;1.73;;
41923;SDS011;27613;48.116;11.656;2022-08-05T12:14:48;3.90;;;1.80;;
41923;SDS011;27613;48.116;11.656;2022-08-05T12:17:14;4.43;;;1.60;;
41923;SDS011;27613;48.116;11.656;2022-08-05T12:19:47;8.85;;;1.65;;
41923;SDS011;27613;48.116;11.656;2022-08-05T12:22:18;2.08;;;1.42;;
41923;SDS011;27613;48.116;11.656;2022-08-05T12:24:51;4.25;;;1.50;;
41923;SDS011;27613;48.116;11.656;2022-08-05T12:30:00;3.38;;;1.77;;
41923;SDS011;27613;48.116;11.656;2022-08-05T12:32:30;3.45;;;1.98;;
41923;SDS011;27613;48.116;11.656;2022-08-05T12:34:57;2.20;;;1.35;;
41923;SDS011;27613;48.116;11.656;2022-08-05T12:37:23;2.63;;;1.58;;
41923;SDS011;27613;48.116;11.656;2022-08-05T12:39:50;3.30;;;1.80;;
41923;SDS011;27613;48.116;11.656;2022-08-05T12:42:19;4.57;;;1.40;;
41923;SDS011;27613;48.116;11.656;2022-08-05T12:44:45;3.28;;;1.70;;
41923;SDS011;27613;48.116;11.656;2022-08-05T12:47:11;2.47;;;1.50;;
41923;SDS011;27613;48.116;11.656;2022-08-05T12:49:42;2.38;;;1.60;;
41923;SDS011;27613;48.116;11.656;2022-08-05T12:52:16;2.88;;;1.65;;
41923;SDS011;27613;48.116;11.656;2022-08-05T12:54:43;3.47;;;1.75;;
41923;SDS011;27613;48.116;11.656;2022-08-05T12:57:15;2.53;;;1.60;;
41923;SDS011;27613;48.116;11.656;2022-08-05T12:59:51;5.05;;;2.03;;
41923;SDS011;27613;48.116;11.656;2022-08-05T13:02:19;4.03;;;1.80;;
41923;SDS011;27613;48.116;11.656;2022-08-05T13:04:49;3.53;;;1.75;;
41923;SDS011;27613;48.116;11.656;2022-08-05T13:07:19;4.20;;;1.92;;
41923;SDS011;27613;48.116;11.656;2022-08-05T13:09:47;7.05;;;1.98;;
41923;SDS011;27613;48.116;11.656;2022-08-05T13:12:18;3.45;;;1.50;;
41923;SDS011;27613;48.116;11.656;2022-08-05T13:14:49;3.88;;;1.45;;
41923;SDS011;27613;48.116;11.656;2022-08-05T13:22:49;2.83;;;1.73;;
41923;SDS011;27613;48.116;11.656;2022-08-05T13:25:16;3.28;;;1.70;;
41923;SDS011;27613;48.116;11.656;2022-08-05T13:27:47;6.60;;;1.70;;
41923;SDS011;27613;48.116;11.656;2022-08-05T13:30:17;3.67;;;1.80;;
41923;SDS011;27613;48.116;11.656;2022-08-05T13:32:45;4.50;;;2.53;;
41923;SDS011;27613;48.116;11.656;2022-08-05T13:35:12;2.17;;;1.50;;
41923;SDS011;27613;48.116;11.656;2022-08-05T13:37:39;6.60;;;1.80;;
41923;SDS011;27613;48.116;11.656;2022-08-05T13:40:05;3.58;;;2.05;;
41923;SDS011;27613;48.116;11.656;2022-08-05T13:42:32;3.63;;;1.90;;
41923;SDS011;27613;48.116;11.656;2022-08-05T13:44:58;3.20;;;1.60;;
41923;SDS011;27613;48.116;11.656;2022-08-05T13:47:24;3.35;;;1.65;;
41923;SDS011;27613;48.116;11.656;2022-08-05T13:49:50;3.65;;;1.80;;
41923;SDS011;27613;48.116;11.656;2022-08-05T13:52:21;2.22;;;1.55;;
41923;SDS011;27613;48.116;11.656;2022-08-05T13:54:48;3.25;;;1.75;;
41923;SDS011;27613;48.116;11.656;2022-08-05T13:57:14;6.28;;;1.90;;
41923;SDS011;27613;48.116;11.656;2022-08-05T13:59:41;4.18;;;1.95;;
41923;SDS011;27613;48.116;11.656;2022-08-05T14:02:09;5.13;;;2.03;;
41923;SDS011;27613;48.116;11.656;2022-08-05T14:04:37;3.72;;;1.70;;
41923;SDS011;27613;48.116;11.656;2022-08-05T14:07:29;3.03;;;1.67;;
41923;SDS011;27613;48.116;11.656;2022-08-05T14:09:58;2.17;;;1.50;;
41923;SDS011;27613;48.116;11.656;2022-08-05T14:12:24;2.42;;;1.70;;
41923;SDS011;27613;48.116;11.656;2022-08-05T14:14:49;4.93;;;2.20;;
41923;SDS011;27613;48.116;11.656;2022-08-05T14:17:15;2.40;;;1.58;;
41923;SDS011;27613;48.116;11.656;2022-08-05T14:19:41;2.75;;;1.88;;
41923;SDS011;27613;48.116;11.656;2022-08-05T14:22:07;3.10;;;1.80;;
41923;SDS011;27613;48.116;11.656;2022-08-05T14:24:33;2.13;;;1.50;;
41923;SDS011;27613;48.116;11.656;2022-08-05T14:26:59;8.00;;;1.70;;
41923;SDS011;27613;48.116;11.656;2022-08-05T14:29:26;2.47;;;1.55;;
41923;SDS011;27613;48.116;11.656;2022-08-05T14:31:51;2.92;;;1.67;;
41923;SDS011;27613;48.116;11.656;2022-08-05T14:34:17;4.03;;;1.40;;
41923;SDS011;27613;48.116;11.656;2022-08-05T14:36:42;2.67;;;1.60;;
41923;SDS011;27613;48.116;11.656;2022-08-05T14:39:08;3.92;;;1.77;;
41923;SDS011;27613;48.116;11.656;2022-08-05T14:41:34;3.60;;;1.75;;
41923;SDS011;27613;48.116;11.656;2022-08-05T14:43:59;3.33;;;1.80;;
41923;SDS011;27613;48.116;11.656;2022-08-05T14:46:25;2.65;;;1.50;;
41923;SDS011;27613;48.116;11.656;2022-08-05T14:48:51;3.85;;;1.90;;
41923;SDS011;27613;48.116;11.656;2022-08-05T14:51:17;2.63;;;1.60;;
41923;SDS011;27613;48.116;11.656;2022-08-05T14:53:43;2.25;;;1.50;;
41923;SDS011;27613;48.116;11.656;2022-08-05T14:56:09;3.60;;;1.83;;
41923;SDS011;27613;48.116;11.656;2022-08-05T14:58:35;5.68;;;2.22;;
41923;SDS011;27613;48.116;11.656;2022-08-05T15:01:01;3.08;;;1.70;;
41923;SDS011;27613;48.116;11.656;2022-08-05T15:03:27;2.28;;;1.70;;
41923;SDS011;27613;48.116;11.656;2022-08-05T15:05:54;2.95;;;1.73;;
41923;SDS011;27613;48.116;11.656;2022-08-05T15:08:20;4.32;;;1.70;;
41923;SDS011;27613;48.116;11.656;2022-08-05T15:10:45;1.98;;;1.50;;
41923;SDS011;27613;48.116;11.656;2022-08-05T15:13:11;2.92;;;1.50;;
41923;SDS011;27613;48.116;11.656;2022-08-05T15:15:36;3.25;;;1.77;;
41923;SDS011;27613;48.116;11.656;2022-08-05T15:18:03;3.20;;;1.80;;
41923;SDS011;27613;48.116;11.656;2022-08-05T15:20:29;2.05;;;1.45;;
41923;SDS011;27613;48.116;11.656;2022-08-05T15:22:54;2.60;;;1.60;;
41923;SDS011;27613;48.116;11.656;2022-08-05T15:25:20;2.08;;;1.40;;
41923;SDS011;27613;48.116;11.656;2022-08-05T15:27:47;3.78;;;1.52;;
41923;SDS011;27613;48.116;11.656;2022-08-05T15:30:13;2.92;;;1.65;;
41923;SDS011;27613;48.116;11.656;2022-08-05T15:32:38;2.35;;;1.40;;
41923;SDS011;27613;48.116;11.656;2022-08-05T15:35:04;1.63;;;1.33;;
41923;SDS011;27613;48.116;11.656;2022-08-05T15:37:30;3.22;;;1.67;;